Time;durP1;ratioP1;P1;durP2;ratioP2;P2;SDS_P1;SDS_P2;PMS_P1;PMS_P2;Temp;Humidity;BMP_temperature;BMP_pressure;BME280_temperature;BME280_humidity;BME280_pressure;Samples;Min_cycle;Max_cycle;Signal;HPM_P1;HPM_P2
2022/09/14 00:02:05;;;;;;;2.58;0.80;;;14.70;99.90;;;;;;5073501;28;20047;-77
2022/09/14 00:04:31;;;;;;;4.55;0.90;;;14.20;99.90;;;;;;5073431;28;20473;-77
2022/09/14 00:06:57;;;;;;;2.85;0.90;;;14.20;99.90;;;;;;5073239;28;20386;-78
2022/09/14 00:09:23;;;;;;;1.90;0.90;;;14.30;99.90;;;;;;5073517;28;20044;-77
2022/09/14 00:11:50;;;;;;;3.63;0.90;;;14.10;99.90;;;;;;5073376;28;20041;-78
2022/09/14 00:14:16;;;;;;;2.60;1.10;;;14.30;99.90;;;;;;5073957;28;20086;-77
2022/09/14 00:16:42;;;;;;;3.45;0.90;;;14.30;99.90;;;;;;5073506;28;20049;-75
2022/09/14 00:19:21;;;;;;;2.60;0.90;;;14.40;99.90;;;;;;5072098;28;20118;-75
2022/09/14 00:21:57;;;;;;;1.95;1.00;;;14.40;99.90;;;;;;5072490;28;20056;-76
2022/09/14 00:24:25;;;;;;;2.90;1.00;;;14.40;99.90;;;;;;5073351;28;20094;-76
2022/09/14 00:26:51;;;;;;;4.60;0.82;;;14.20;99.90;;;;;;5056083;28;20060;-76
2022/09/14 00:29:17;;;;;;;3.00;1.10;;;14.50;99.90;;;;;;5072288;28;20089;-76
2022/09/14 00:31:43;;;;;;;2.58;0.80;;;14.40;99.90;;;;;;5073433;28;20044;-76
2022/09/14 00:34:13;;;;;;;3.05;1.02;;;14.50;99.90;;;;;;5072749;28;20052;-77
2022/09/14 00:36:47;;;;;;;2.03;0.95;;;14.40;99.90;;;;;;5073288;28;20126;-77
2022/09/14 00:39:13;;;;;;;8.32;1.25;;;14.40;99.90;;;;;;5073128;28;20109;-77
2022/09/14 00:41:42;;;;;;;2.00;1.10;;;14.40;99.90;;;;;;5072440;28;20044;-77
2022/09/14 00:44:10;;;;;;;3.95;1.20;;;14.40;99.90;;;;;;5076707;28;20048;-76
2022/09/14 00:46:44;;;;;;;1.50;0.80;;;14.40;99.90;;;;;;5075893;28;20129;-77
2022/09/14 00:49:31;;;;;;;3.72;0.90;;;14.50;99.90;;;;;;5076907;28;20051;-77
2022/09/14 00:51:59;;;;;;;1.58;0.90;;;14.40;99.90;;;;;;5076752;28;20095;-77
2022/09/14 00:54:25;;;;;;;2.15;1.00;;;14.40;99.90;;;;;;5075788;28;20060;-77
2022/09/14 00:56:52;;;;;;;4.05;1.35;;;14.50;99.90;;;;;;5075474;28;20045;-76
2022/09/14 00:59:27;;;;;;;2.85;0.90;;;14.50;99.90;;;;;;5075718;28;20488;-77
2022/09/14 01:01:53;;;;;;;2.35;1.02;;;14.40;99.90;;;;;;5075415;28;20101;-77
2022/09/14 01:04:19;;;;;;;4.00;1.05;;;14.60;99.90;;;;;;5076526;28;20044;-77
2022/09/14 01:06:53;;;;;;;4.13;1.17;;;14.40;99.90;;;;;;5075127;28;20044;-76
2022/09/14 01:09:51;;;;;;;3.15;1.20;;;14.40;99.90;;;;;;5076878;28;20052;-76
2022/09/14 01:12:34;;;;;;;3.83;1.30;;;14.40;99.90;;;;;;5060350;28;20508;-77
2022/09/14 01:15:24;;;;;;;2.75;1.20;;;14.50;99.90;;;;;;5076448;28;20127;-77
2022/09/14 01:18:08;;;;;;;3.40;1.15;;;14.50;99.90;;;;;;5075760;28;20052;-75
2022/09/14 01:20:58;;;;;;;1.65;1.00;;;14.50;99.90;;;;;;5075877;28;20045;-76
2022/09/14 01:23:54;;;;;;;2.55;1.35;;;14.70;99.90;;;;;;5076717;28;20071;-76
2022/09/14 01:26:22;;;;;;;3.95;1.30;;;14.60;99.90;;;;;;5075517;28;20052;-76
2022/09/14 01:28:53;;;;;;;2.92;1.00;;;14.50;99.90;;;;;;5075026;28;20515;-76
2022/09/14 01:31:29;;;;;;;2.33;1.10;;;14.40;99.90;;;;;;5076100;28;20036;-76
2022/09/14 01:34:12;;;;;;;3.33;1.27;;;14.40;99.90;;;;;;5075144;28;20045;-76
2022/09/14 01:36:42;;;;;;;3.92;1.05;;;14.30;99.90;;;;;;5075765;28;20492;-76
2022/09/14 01:39:09;;;;;;;3.90;1.08;;;14.40;99.90;;;;;;5075894;28;20055;-77
2022/09/14 01:41:36;;;;;;;1.98;1.30;;;14.50;99.90;;;;;;5075944;28;20060;-76
2022/09/14 01:44:17;;;;;;;4.53;1.10;;;14.60;99.90;;;;;;5075858;28;20045;-75
2022/09/14 01:46:46;;;;;;;6.10;1.38;;;14.50;99.90;;;;;;5075905;28;20040;-76
2022/09/14 01:49:16;;;;;;;3.45;1.30;;;14.50;99.90;;;;;;5075175;28;20048;-76
2022/09/14 01:51:47;;;;;;;4.20;1.10;;;14.50;99.90;;;;;;5075650;28;20036;-76
2022/09/14 01:54:27;;;;;;;4.07;1.00;;;14.50;99.90;;;;;;5058455;28;20051;-76
2022/09/14 01:57:20;;;;;;;3.97;1.10;;;14.50;99.90;;;;;;5074731;28;20056;-77
2022/09/14 01:59:47;;;;;;;3.25;1.10;;;14.50;99.90;;;;;;5070589;28;20056;-75
2022/09/14 02:02:22;;;;;;;3.70;1.10;;;14.60;99.90;;;;;;5074107;28;20044;-76
2022/09/14 02:04:56;;;;;;;2.35;1.25;;;14.40;99.90;;;;;;5058165;28;20075;-77
2022/09/14 02:07:22;;;;;;;3.60;1.08;;;14.50;99.90;;;;;;5074158;28;20049;-76
2022/09/14 02:09:50;;;;;;;2.70;0.93;;;14.50;99.90;;;;;;5074670;28;20087;-76
2022/09/14 02:12:16;;;;;;;3.00;1.00;;;14.50;99.90;;;;;;5075364;28;20063;-76
2022/09/14 02:14:44;;;;;;;4.30;1.20;;;14.40;99.90;;;;;;5074259;28;20500;-76
2022/09/14 02:17:11;;;;;;;4.10;1.00;;;14.60;99.90;;;;;;5075258;28;20052;-76
2022/09/14 02:19:43;;;;;;;2.80;1.00;;;14.60;99.90;;;;;;5057096;28;20048;-77
2022/09/14 02:22:09;;;;;;;4.57;1.10;;;14.70;99.90;;;;;;5075473;28;20051;-76
2022/09/14 02:24:35;;;;;;;3.10;0.90;;;14.60;99.90;;;;;;5073985;28;20048;-77
2022/09/14 02:27:02;;;;;;;1.60;1.10;;;14.50;99.90;;;;;;5073801;28;20080;-77
2022/09/14 02:29:28;;;;;;;3.13;1.17;;;14.60;99.90;;;;;;5074226;28;20190;-77
2022/09/14 02:32:32;;;;;;;5.80;1.40;;;14.50;99.90;;;;;;5074338;28;20127;-77
2022/09/14 02:35:13;;;;;;;2.60;1.20;;;14.40;99.90;;;;;;5075229;28;20468;-78
2022/09/14 02:37:47;;;;;;;1.58;1.00;;;14.50;99.90;;;;;;5074954;28;20055;-77
2022/09/14 02:40:31;;;;;;;1.85;1.00;;;14.30;99.90;;;;;;5073938;28;20413;-78
2022/09/14 02:43:22;;;;;;;2.70;1.00;;;14.30;99.90;;;;;;5074915;28;20118;-76
2022/09/14 02:46:12;;;;;;;1.77;1.10;;;14.20;99.90;;;;;;5073813;28;20048;-78
2022/09/14 02:48:56;;;;;;;3.63;1.25;;;14.20;99.90;;;;;;5073555;28;20399;-77
2022/09/14 02:51:37;;;;;;;1.80;1.05;;;14.20;99.90;;;;;;5057282;28;20047;-77
2022/09/14 02:54:18;;;;;;;2.40;1.20;;;14.30;99.90;;;;;;5074095;28;20055;-75
2022/09/14 02:56:44;;;;;;;2.97;1.17;;;14.10;99.90;;;;;;5073645;28;20048;-76
2022/09/14 02:59:10;;;;;;;3.70;1.15;;;14.10;99.90;;;;;;5074456;28;20087;-76
2022/09/14 03:01:36;;;;;;;4.75;1.30;;;14.50;99.90;;;;;;5073370;28;20515;-77
2022/09/14 03:04:02;;;;;;;5.07;1.40;;;14.40;99.90;;;;;;5074332;28;20484;-76
2022/09/14 03:06:28;;;;;;;5.13;1.38;;;14.40;99.90;;;;;;5056281;28;20063;-77
2022/09/14 03:08:53;;;;;;;3.85;1.27;;;14.40;99.90;;;;;;5072881;28;20079;-77
2022/09/14 03:11:19;;;;;;;4.88;1.40;;;14.20;99.90;;;;;;5074645;28;20067;-77
2022/09/14 03:13:45;;;;;;;4.45;1.27;;;14.40;99.90;;;;;;5074131;28;20093;-76
2022/09/14 03:16:14;;;;;;;4.47;1.35;;;14.30;99.90;;;;;;5074079;28;20044;-76
2022/09/14 03:18:40;;;;;;;7.30;1.42;;;14.20;99.90;;;;;;5072508;28;20051;-76
2022/09/14 03:21:10;;;;;;;4.88;1.30;;;14.30;99.90;;;;;;5073451;28;20053;-76
2022/09/14 03:23:40;;;;;;;2.85;1.30;;;14.30;99.90;;;;;;5074046;28;20147;-76
2022/09/14 03:26:11;;;;;;;4.18;1.35;;;14.40;99.90;;;;;;5074138;28;20051;-76
2022/09/14 03:28:37;;;;;;;2.58;1.20;;;14.30;99.90;;;;;;5073973;28;20045;-76
2022/09/14 03:31:04;;;;;;;4.22;1.40;;;14.30;99.90;;;;;;5073842;28;20481;-76
2022/09/14 03:33:30;;;;;;;3.95;1.10;;;14.30;99.90;;;;;;5072869;28;20103;-76
2022/09/14 03:35:56;;;;;;;4.15;1.45;;;14.40;99.90;;;;;;5074152;28;20056;-77
2022/09/14 03:38:23;;;;;;;3.05;1.13;;;14.20;99.90;;;;;;5056474;28;20041;-76
2022/09/14 03:40:49;;;;;;;2.60;1.00;;;14.40;99.90;;;;;;5073681;28;20055;-76
2022/09/14 03:43:14;;;;;;;2.70;1.20;;;14.20;99.90;;;;;;5074148;28;20048;-76
2022/09/14 03:45:40;;;;;;;4.30;1.58;;;14.30;99.90;;;;;;5073719;28;20055;-76
2022/09/14 03:48:06;;;;;;;2.38;1.10;;;14.20;99.90;;;;;;5072469;28;20063;-76
2022/09/14 03:50:32;;;;;;;4.50;1.30;;;14.30;99.90;;;;;;5073123;28;20040;-76
2022/09/14 03:52:58;;;;;;;3.10;1.40;;;14.30;99.90;;;;;;5056131;28;20037;-76
2022/09/14 03:55:24;;;;;;;5.70;1.30;;;14.30;99.90;;;;;;5073597;28;20143;-75
2022/09/14 03:57:54;;;;;;;2.33;1.00;;;14.40;99.90;;;;;;5073282;28;20610;-76
2022/09/14 04:00:20;;;;;;;3.20;1.15;;;14.50;99.90;;;;;;5056298;28;20511;-76
2022/09/14 04:02:46;;;;;;;4.30;1.40;;;14.40;99.90;;;;;;5072852;28;20488;-77
2022/09/14 04:05:12;;;;;;;4.43;1.50;;;14.50;99.90;;;;;;5072420;28;20051;-77
2022/09/14 04:07:37;;;;;;;2.95;1.42;;;14.30;99.90;;;;;;5073657;28;20509;-77
2022/09/14 04:10:05;;;;;;;3.83;1.40;;;14.40;99.90;;;;;;5073565;28;20060;-76
2022/09/14 04:12:38;;;;;;;4.05;1.38;;;14.30;99.90;;;;;;5055811;28;20054;-76
2022/09/14 04:15:05;;;;;;;4.95;1.60;;;14.40;99.90;;;;;;5072653;28;20052;-77
2022/09/14 04:17:31;;;;;;;4.85;1.40;;;14.30;99.90;;;;;;5074070;28;20048;-77
2022/09/14 04:19:56;;;;;;;4.22;1.45;;;14.30;99.90;;;;;;5059324;28;20040;-77
2022/09/14 04:22:22;;;;;;;4.00;1.42;;;14.40;99.90;;;;;;5077541;28;20400;-77
2022/09/14 04:24:48;;;;;;;2.67;1.20;;;14.30;99.90;;;;;;5077393;28;20107;-77
2022/09/14 04:27:14;;;;;;;2.33;1.40;;;14.30;99.90;;;;;;5076343;28;20118;-77
2022/09/14 04:29:39;;;;;;;2.85;1.20;;;14.40;99.90;;;;;;5076143;28;20041;-77
2022/09/14 04:32:05;;;;;;;4.63;1.40;;;14.40;99.90;;;;;;5075935;28;20047;-77
2022/09/14 04:34:31;;;;;;;5.65;2.03;;;14.30;99.90;;;;;;5077149;28;20044;-77
2022/09/14 04:36:57;;;;;;;3.45;1.20;;;14.50;99.90;;;;;;5077186;28;20050;-77
2022/09/14 04:39:22;;;;;;;3.85;1.48;;;14.40;99.90;;;;;;5077149;28;20052;-77
2022/09/14 04:41:48;;;;;;;2.80;1.17;;;14.40;99.90;;;;;;5077354;28;20051;-77
2022/09/14 04:44:14;;;;;;;4.38;1.30;;;14.30;99.90;;;;;;5076932;28;20584;-77
2022/09/14 04:46:41;;;;;;;3.47;1.48;;;14.40;99.90;;;;;;5077071;28;20090;-77
2022/09/14 04:49:07;;;;;;;1.77;1.23;;;14.40;99.90;;;;;;5075137;28;20056;-77
2022/09/14 04:51:35;;;;;;;5.70;1.40;;;14.40;99.90;;;;;;5075666;28;20547;-77
2022/09/14 04:54:02;;;;;;;5.95;1.52;;;14.50;99.90;;;;;;5059304;28;20401;-78
2022/09/14 04:56:31;;;;;;;4.43;1.23;;;14.40;99.90;;;;;;5075810;28;20147;-77
2022/09/14 04:58:58;;;;;;;2.90;1.20;;;14.40;99.90;;;;;;5075842;28;20428;-77
2022/09/14 05:01:32;;;;;;;2.50;1.35;;;14.30;99.90;;;;;;5075830;28;20189;-77
2022/09/14 05:03:57;;;;;;;4.47;1.48;;;14.30;99.90;;;;;;5076725;28;20044;-77
2022/09/14 05:06:29;;;;;;;3.05;1.50;;;14.50;99.90;;;;;;5075480;28;20074;-77
2022/09/14 05:08:56;;;;;;;4.38;1.30;;;14.50;99.90;;;;;;5076612;28;20060;-77
2022/09/14 05:11:24;;;;;;;2.35;1.33;;;14.40;99.90;;;;;;5076403;28;20048;-77
2022/09/14 05:13:50;;;;;;;4.25;1.40;;;14.40;99.90;;;;;;5075472;28;20536;-77
2022/09/14 05:16:17;;;;;;;2.45;1.10;;;14.60;99.90;;;;;;5075393;28;20131;-76
2022/09/14 05:18:44;;;;;;;3.58;1.60;;;14.50;99.90;;;;;;5075876;28;20044;-77
2022/09/14 05:21:12;;;;;;;5.45;1.30;;;14.70;99.90;;;;;;5076384;28;20117;-77
2022/09/14 05:23:38;;;;;;;5.60;1.45;;;14.60;99.90;;;;;;5075184;28;20050;-76
2022/09/14 05:26:05;;;;;;;3.83;1.90;;;14.50;99.90;;;;;;5075082;28;20045;-76
2022/09/14 05:28:33;;;;;;;4.70;1.70;;;14.70;99.90;;;;;;5075633;28;20579;-77
2022/09/14 05:31:02;;;;;;;5.43;1.45;;;14.70;99.90;;;;;;5076208;28;20048;-77
2022/09/14 05:33:28;;;;;;;5.10;1.58;;;14.80;99.90;;;;;;5058524;28;20057;-77
2022/09/14 05:36:03;;;;;;;2.65;1.30;;;14.60;99.90;;;;;;5076106;28;20048;-76
2022/09/14 05:38:30;;;;;;;3.10;1.48;;;14.60;99.90;;;;;;5075220;28;20098;-77
2022/09/14 05:40:56;;;;;;;2.15;1.40;;;14.70;99.90;;;;;;5076128;28;20147;-76
2022/09/14 05:43:22;;;;;;;2.92;1.23;;;14.60;99.90;;;;;;5074843;28;20059;-76
2022/09/14 05:45:48;;;;;;;3.60;1.23;;;14.60;99.90;;;;;;5074963;28;20365;-77
2022/09/14 05:48:14;;;;;;;2.97;1.35;;;14.70;99.90;;;;;;5075517;28;20060;-77
2022/09/14 05:50:40;;;;;;;4.28;1.80;;;14.70;99.90;;;;;;5074281;28;20041;-77
2022/09/14 05:53:06;;;;;;;3.95;1.77;;;14.90;99.90;;;;;;5075726;28;20147;-77
2022/09/14 05:55:31;;;;;;;4.05;1.58;;;14.90;99.90;;;;;;5074519;28;20064;-79
2022/09/14 05:57:57;;;;;;;2.67;1.40;;;14.60;99.90;;;;;;5074858;28;20048;-77
2022/09/14 06:00:23;;;;;;;4.63;1.55;;;14.60;99.90;;;;;;5074800;28;20041;-77
2022/09/14 06:02:51;;;;;;;3.75;1.30;;;14.70;99.90;;;;;;5075591;28;20097;-77
2022/09/14 06:05:17;;;;;;;3.35;1.27;;;14.80;99.90;;;;;;5057539;28;20091;-77
2022/09/14 06:07:43;;;;;;;4.22;1.45;;;14.80;99.90;;;;;;5075510;28;20052;-76
2022/09/14 06:10:10;;;;;;;5.30;1.58;;;14.70;99.90;;;;;;5074512;28;20109;-77
2022/09/14 06:12:36;;;;;;;2.80;1.30;;;14.80;99.90;;;;;;5074261;28;20431;-76
2022/09/14 06:15:01;;;;;;;5.10;1.92;;;14.70;99.90;;;;;;5074258;28;20183;-77
2022/09/14 06:17:30;;;;;;;3.53;1.42;;;14.70;99.90;;;;;;5074991;28;20067;-76
2022/09/14 06:19:56;;;;;;;4.07;1.42;;;14.90;99.90;;;;;;5074738;28;20048;-76
2022/09/14 06:22:22;;;;;;;3.35;1.55;;;14.80;99.90;;;;;;5075203;28;20045;-76
2022/09/14 06:24:48;;;;;;;2.38;1.40;;;14.80;99.90;;;;;;5057635;28;20514;-76
2022/09/14 06:27:14;;;;;;;2.90;1.20;;;15.10;99.90;;;;;;5075081;28;20056;-77
2022/09/14 06:29:40;;;;;;;4.15;1.50;;;14.70;99.90;;;;;;5073945;28;20060;-76
2022/09/14 06:32:06;;;;;;;2.97;1.20;;;14.80;99.90;;;;;;5074809;28;20037;-76
2022/09/14 06:34:31;;;;;;;4.38;1.55;;;15.10;99.90;;;;;;5073672;28;20059;-76
2022/09/14 06:36:57;;;;;;;3.17;1.20;;;15.20;99.90;;;;;;5073812;28;20048;-77
2022/09/14 06:39:23;;;;;;;4.10;1.30;;;14.90;99.90;;;;;;5073784;28;20048;-77
2022/09/14 06:41:50;;;;;;;3.80;1.50;;;14.90;99.90;;;;;;5072579;28;20056;-76
2022/09/14 06:44:16;;;;;;;4.53;1.10;;;15.30;99.90;;;;;;5073698;28;20048;-76
2022/09/14 06:46:43;;;;;;;4.78;1.35;;;15.10;99.90;;;;;;5073473;28;20434;-76
2022/09/14 06:49:12;;;;;;;3.65;1.52;;;15.10;99.90;;;;;;5056663;28;20109;-77
2022/09/14 06:51:40;;;;;;;5.18;1.10;;;15.20;99.90;;;;;;5074656;28;20366;-77
2022/09/14 06:54:06;;;;;;;5.72;1.20;;;15.40;99.90;;;;;;5073264;28;20051;-77
2022/09/14 06:56:38;;;;;;;3.88;1.10;;;15.20;99.90;;;;;;5074876;28;20040;-76
2022/09/14 06:59:09;;;;;;;6.73;1.30;;;15.30;99.90;;;;;;5074631;28;20145;-77
2022/09/14 07:01:35;;;;;;;2.85;1.10;;;15.50;99.90;;;;;;5073231;28;20282;-76
2022/09/14 07:04:02;;;;;;;1.55;0.80;;;15.50;99.90;;;;;;5074365;28;20051;-76
2022/09/14 07:06:32;;;;;;;4.25;1.00;;;15.60;99.90;;;;;;5073879;28;20494;-76
2022/09/14 07:09:01;;;;;;;1.67;0.90;;;15.50;99.90;;;;;;5074627;28;20119;-76
2022/09/14 07:11:28;;;;;;;3.03;0.80;;;15.70;99.90;;;;;;5073477;28;20040;-76
2022/09/14 07:13:57;;;;;;;2.88;1.15;;;15.60;99.90;;;;;;5074261;28;20052;-76
2022/09/14 07:16:24;;;;;;;2.28;0.80;;;15.60;99.90;;;;;;5073250;28;20048;-76
2022/09/14 07:18:57;;;;;;;3.58;0.80;;;15.70;99.90;;;;;;5072474;28;20048;-77
2022/09/14 07:21:24;;;;;;;5.50;0.93;;;;;;;;;;5073045;28;20059;-77
2022/09/14 07:23:50;;;;;;;5.15;0.70;;;;;;;;;;5056341;28;20050;-76
2022/09/14 07:26:17;;;;;;;1.88;0.63;;;15.90;99.90;;;;;;5074302;28;20044;-76
2022/09/14 07:28:46;;;;;;;3.88;0.75;;;16.20;99.90;;;;;;5072793;28;20044;-76
2022/09/14 07:31:23;;;;;;;3.55;0.82;;;16.20;99.90;;;;;;5072857;28;20162;-77
2022/09/14 07:33:55;;;;;;;2.97;0.60;;;16.00;99.90;;;;;;5073081;28;20516;-76
2022/09/14 07:36:21;;;;;;;4.85;0.60;;;16.20;99.90;;;;;;5073886;28;20052;-76
2022/09/14 07:38:48;;;;;;;2.45;0.88;;;16.20;99.90;;;;;;5072860;28;20040;-77
2022/09/14 07:41:13;;;;;;;5.38;0.80;;;16.20;99.90;;;;;;5073771;28;20040;-77
2022/09/14 07:43:39;;;;;;;5.60;0.90;;;16.40;99.90;;;;;;5072801;28;20048;-76
2022/09/14 07:46:06;;;;;;;2.88;0.77;;;16.10;99.90;;;;;;5072764;28;20084;-77
2022/09/14 07:48:33;;;;;;;3.17;0.70;;;16.20;99.90;;;;;;5072527;28;20048;-76
2022/09/14 07:51:04;;;;;;;3.42;0.70;;;16.10;99.90;;;;;;5071902;28;20044;-80
2022/09/14 07:53:31;;;;;;;2.10;0.90;;;16.50;99.90;;;;;;5072768;28;20110;-78
2022/09/14 07:56:00;;;;;;;3.85;0.70;;;16.30;99.90;;;;;;5074106;28;20174;-79
2022/09/14 07:58:27;;;;;;;2.13;0.85;;;16.30;99.90;;;;;;5073824;28;20176;-80
2022/09/14 08:00:58;;;;;;;2.33;0.55;;;16.30;99.90;;;;;;5056156;28;20052;-80
2022/09/14 08:03:24;;;;;;;2.85;0.70;;;16.50;99.90;;;;;;5073746;28;20049;-80
2022/09/14 08:06:00;;;;;;;6.35;1.20;;;16.60;99.90;;;;;;5073715;28;20040;-81
2022/09/14 08:08:34;;;;;;;2.25;0.55;;;16.50;99.90;;;;;;5073725;28;20056;-77
2022/09/14 08:11:19;;;;;;;1.70;0.50;;;16.60;99.90;;;;;;5073630;28;20044;-77
2022/09/14 08:13:48;;;;;;;2.08;0.70;;;16.50;99.90;;;;;;5073581;28;20136;-82
2022/09/14 08:16:14;;;;;;;1.92;0.70;;;16.80;99.90;;;;;;5073784;28;20537;-82
2022/09/14 08:18:40;;;;;;;3.25;0.70;;;16.60;99.90;;;;;;5072709;28;20056;-82
2022/09/14 08:21:09;;;;;;;2.08;0.52;;;16.70;99.90;;;;;;5073051;28;20049;-78
2022/09/14 08:23:36;;;;;;;3.72;1.27;;;16.70;99.90;;;;;;5071968;28;20102;-77
2022/09/14 08:26:12;;;;;;;4.47;0.70;;;16.90;99.90;;;;;;5072973;28;20080;-77
2022/09/14 08:28:38;;;;;;;3.08;0.73;;;16.80;99.90;;;;;;5071803;28;20113;-78
2022/09/14 08:31:12;;;;;;;6.00;0.80;;;16.80;99.90;;;;;;5071711;28;20431;-77
2022/09/14 08:33:41;;;;;;;4.32;0.80;;;16.70;99.90;;;;;;5071996;28;20123;-77
2022/09/14 08:36:08;;;;;;;4.63;0.70;;;16.90;99.90;;;;;;5072886;28;20079;-76
2022/09/14 08:38:34;;;;;;;3.15;0.60;;;16.80;99.90;;;;;;5072892;28;20078;-77
2022/09/14 08:41:16;;;;;;;5.97;0.95;;;17.10;99.90;;;;;;5071834;28;20388;-76
2022/09/14 08:43:41;;;;;;;4.95;1.00;;;17.00;99.90;;;;;;5055129;28;20089;-78
2022/09/14 08:46:14;;;;;;;3.65;0.70;;;17.00;99.90;;;;;;5071880;28;20040;-79
2022/09/14 08:48:47;;;;;;;3.13;0.90;;;16.90;99.90;;;;;;5072793;28;20076;-77
2022/09/14 08:51:14;;;;;;;3.63;0.75;;;17.00;99.90;;;;;;5071302;28;20123;-77
2022/09/14 08:53:41;;;;;;;3.67;0.98;;;17.10;99.90;;;;;;5071518;28;20045;-78
2022/09/14 08:56:20;;;;;;;6.72;1.00;;;17.20;99.90;;;;;;5071835;28;20420;-77
2022/09/14 08:58:55;;;;;;;6.63;0.90;;;17.00;99.90;;;;;;5070492;28;20044;-77
2022/09/14 09:01:45;;;;;;;2.70;0.50;;;16.90;99.90;;;;;;5071481;28;20493;-78
2022/09/14 09:04:23;;;;;;;4.18;0.50;;;17.20;99.90;;;;;;5072598;28;20481;-78
2022/09/14 09:06:59;;;;;;;2.50;0.60;;;17.10;99.90;;;;;;5069716;28;20467;-79
2022/09/14 09:09:43;;;;;;;3.63;0.52;;;17.10;99.90;;;;;;5071464;28;20055;-78
2022/09/14 09:12:33;;;;;;;4.38;0.60;;;17.30;99.90;;;;;;5068764;28;20477;-79
2022/09/14 09:15:03;;;;;;;4.20;0.65;;;17.20;99.90;;;;;;5070808;28;20048;-79
2022/09/14 09:17:40;;;;;;;4.97;0.60;;;17.20;99.90;;;;;;5070088;28;20477;-82
2022/09/14 09:20:15;;;;;;;3.38;0.50;;;17.30;99.90;;;;;;5067684;28;20098;-79
2022/09/14 09:23:05;;;;;;;2.10;0.40;;;17.30;99.90;;;;;;5053742;28;20063;-79
2022/09/14 09:25:52;;;;;;;1.77;0.43;;;17.30;99.90;;;;;;5069556;28;20500;-79
2022/09/14 09:28:18;;;;;;;5.95;0.60;;;17.20;99.90;;;;;;5071791;28;20082;-78
2022/09/14 09:30:44;;;;;;;3.38;0.50;;;17.30;99.90;;;;;;5069654;28;20116;-79
2022/09/14 09:33:22;;;;;;;7.10;0.70;;;17.40;99.90;;;;;;5069125;28;20603;-79
2022/09/14 09:35:49;;;;;;;2.85;0.47;;;17.50;99.90;;;;;;5068812;28;20070;-79
2022/09/14 09:38:23;;;;;;;2.53;0.47;;;17.50;99.90;;;;;;5069156;28;20055;-79
2022/09/14 09:40:53;;;;;;;2.03;0.47;;;17.60;99.90;;;;;;5066172;28;20078;-78
2022/09/14 09:43:19;;;;;;;2.03;0.50;;;17.60;99.90;;;;;;5066392;28;20048;-78
2022/09/14 09:45:50;;;;;;;4.50;0.55;;;17.80;99.90;;;;;;5070154;28;20093;-80
2022/09/14 09:48:18;;;;;;;4.88;0.57;;;17.80;99.90;;;;;;5069755;28;20045;-80
2022/09/14 09:51:00;;;;;;;5.97;0.60;;;;;;;;;;5067385;28;20384;-80
2022/09/14 09:53:26;;;;;;;4.07;0.65;;;17.80;99.90;;;;;;5065492;28;20094;-79
2022/09/14 09:55:52;;;;;;;3.78;0.57;;;17.90;99.90;;;;;;5051583;28;20377;-78
2022/09/14 09:58:27;;;;;;;2.15;0.40;;;17.90;99.90;;;;;;5067949;28;20059;-80
2022/09/14 10:01:03;;;;;;;2.88;0.73;;;18.00;99.90;;;;;;5052135;28;20060;-83
2022/09/14 10:03:35;;;;;;;4.93;0.60;;;18.20;99.90;;;;;;5067180;28;20054;-79
2022/09/14 10:06:08;;;;;;;3.20;0.40;;;18.10;99.90;;;;;;5067700;28;20052;-80
2022/09/14 10:08:44;;;;;;;9.45;0.82;;;18.20;99.90;;;;;;5047876;28;20071;-79
2022/09/14 10:11:30;;;;;;;1.42;0.40;;;18.30;99.90;;;;;;5067411;28;20056;-79
2022/09/14 10:13:57;;;;;;;5.20;0.73;;;18.20;99.90;;;;;;5068436;28;20045;-80
2022/09/14 10:16:25;;;;;;;4.20;0.50;;;18.30;99.90;;;;;;5067022;28;20040;-77
2022/09/14 10:18:52;;;;;;;3.95;0.50;;;18.30;99.90;;;;;;5068465;28;20453;-78
2022/09/14 10:21:24;;;;;;;2.33;0.40;;;18.40;99.90;;;;;;5067180;28;20044;-79
2022/09/14 10:24:04;;;;;;;;;;;18.40;99.90;;;;;;5067972;28;20048;-78
2022/09/14 10:26:35;;;;;;;2.45;0.40;;;18.40;99.90;;;;;;5082560;28;19925;-79
2022/09/14 10:29:20;;;;;;;2.45;0.40;;;18.40;99.90;;;;;;5065925;28;20064;-79
2022/09/14 10:31:47;;;;;;;3.42;0.60;;;18.40;99.90;;;;;;5067929;28;20037;-79
2022/09/14 10:34:18;;;;;;;2.15;0.50;;;18.30;99.90;;;;;;5069499;28;20051;-78
2022/09/14 10:36:54;;;;;;;1.08;0.40;;;18.40;99.90;;;;;;5066499;28;20044;-77
2022/09/14 10:39:32;;;;;;;2.58;0.40;;;18.40;99.90;;;;;;5068654;28;20053;-79
2022/09/14 10:42:13;;;;;;;2.83;0.40;;;18.30;99.90;;;;;;5067662;28;20102;-78
2022/09/14 10:44:56;;;;;;;3.45;0.40;;;18.40;99.90;;;;;;5065525;28;20055;-83
2022/09/14 10:47:46;;;;;;;3.13;0.40;;;18.20;99.90;;;;;;5066534;28;20072;-79
2022/09/14 10:50:21;;;;;;;2.88;0.55;;;18.30;99.90;;;;;;5068167;28;20051;-76
2022/09/14 10:53:14;;;;;;;2.88;0.60;;;18.30;99.90;;;;;;5066434;28;20097;-77
2022/09/14 10:55:42;;;;;;;5.13;0.50;;;18.30;99.90;;;;;;5068367;28;20076;-78
2022/09/14 10:58:29;;;;;;;3.85;0.60;;;18.40;99.90;;;;;;5065545;28;20066;-77
2022/09/14 11:01:22;;;;;;;2.70;0.52;;;18.20;99.90;;;;;;5067525;28;20056;-78
2022/09/14 11:03:54;;;;;;;;;;;18.30;99.90;;;;;;5066105;28;20055;-78
2022/09/14 11:06:26;;;;;;;3.47;0.60;;;18.30;99.90;;;;;;5066660;28;19982;-79
2022/09/14 11:09:01;;;;;;;4.85;0.47;;;18.40;99.90;;;;;;5068737;28;20053;-78
2022/09/14 11:11:26;;;;;;;2.97;0.50;;;18.30;99.90;;;;;;5048979;28;20044;-76
2022/09/14 11:14:00;;;;;;;2.80;0.40;;;18.20;99.90;;;;;;5068311;28;20463;-80
2022/09/14 11:16:38;;;;;;;2.60;0.40;;;18.40;99.90;;;;;;5067687;28;20564;-80
2022/09/14 11:19:25;;;;;;;4.35;0.82;;;18.20;99.90;;;;;;5066498;28;20255;-80
2022/09/14 11:22:28;;;;;;;3.30;0.40;;;18.30;99.90;;;;;;5067977;28;20352;-79
2022/09/14 11:24:59;;;;;;;5.57;0.70;;;18.30;99.90;;;;;;5070423;28;20044;-79
2022/09/14 11:27:35;;;;;;;2.65;0.40;;;18.20;99.90;;;;;;5073152;28;20076;-78
2022/09/14 11:30:12;;;;;;;3.10;0.40;;;18.10;99.90;;;;;;5053063;28;20037;-78
2022/09/14 11:32:51;;;;;;;1.77;0.40;;;18.20;99.90;;;;;;5069565;28;20530;-79
2022/09/14 11:35:53;;;;;;;3.83;0.55;;;18.30;99.90;;;;;;5050630;28;20040;-77
2022/09/14 11:38:24;;;;;;;3.75;0.52;;;18.40;99.90;;;;;;5068204;28;20040;-79
2022/09/14 11:41:00;;;;;;;1.27;0.40;;;18.30;99.90;;;;;;5068204;28;20033;-76
2022/09/14 11:43:52;;;;;;;3.20;0.73;;;18.30;99.90;;;;;;5049742;28;20110;-79
2022/09/14 11:46:28;;;;;;;7.68;0.85;;;18.50;99.90;;;;;;5068709;28;20041;-79
2022/09/14 11:49:03;;;;;;;2.83;0.50;;;18.50;99.90;;;;;;5068760;28;20052;-81
2022/09/14 11:51:38;;;;;;;3.72;0.50;;;18.50;99.90;;;;;;5069154;28;20090;-83
2022/09/14 11:54:15;;;;;;;3.75;0.60;;;18.70;99.90;;;;;;5069105;28;20507;-81
2022/09/14 11:56:45;;;;;;;4.10;0.50;;;18.60;99.90;;;;;;5068424;28;20048;-79
2022/09/14 11:59:49;;;;;;;2.40;0.60;;;18.80;99.90;;;;;;5049791;28;20060;-79
2022/09/14 12:02:23;;;;;;;5.30;0.80;;;18.90;99.90;;;;;;5069286;28;20392;-79
2022/09/14 12:05:09;;;;;;;7.57;1.10;;;18.70;99.90;;;;;;5052995;28;20483;-81
2022/09/14 12:07:46;;;;;;;2.60;0.60;;;18.70;99.90;;;;;;5074827;28;20127;-80
2022/09/14 12:10:18;;;;;;;4.57;0.70;;;18.70;99.90;;;;;;5067059;28;20127;-80
2022/09/14 12:13:05;;;;;;;3.60;0.68;;;18.80;99.90;;;;;;5067509;28;20497;-79
2022/09/14 12:15:36;;;;;;;2.70;0.52;;;18.90;99.90;;;;;;5064467;28;20407;-80
2022/09/14 12:18:05;;;;;;;3.25;0.70;;;18.90;99.90;;;;;;5066184;28;20063;-80
2022/09/14 12:20:36;;;;;;;4.57;0.60;;;18.90;99.90;;;;;;5063572;28;20082;-81
2022/09/14 12:23:21;;;;;;;5.90;0.75;;;18.90;99.90;;;;;;5065496;28;20098;-78
2022/09/14 12:26:05;;;;;;;2.28;0.40;;;19.00;99.90;;;;;;5065481;28;21263;-79
2022/09/14 12:28:34;;;;;;;3.42;0.57;;;19.00;99.90;;;;;;5072914;28;20047;-78
2022/09/14 12:31:01;;;;;;;3.13;0.60;;;19.10;99.90;;;;;;5072028;28;20111;-78
2022/09/14 12:33:32;;;;;;;2.38;0.50;;;19.30;99.90;;;;;;5072060;28;20048;-79
2022/09/14 12:36:21;;;;;;;4.55;0.60;;;19.10;99.90;;;;;;5073007;28;20044;-78
2022/09/14 12:38:50;;;;;;;3.17;0.60;;;19.20;99.90;;;;;;5053415;28;20067;-79
2022/09/14 12:41:19;;;;;;;5.78;0.90;;;19.10;99.90;;;;;;5075998;28;20107;-78
2022/09/14 12:43:48;;;;;;;2.22;0.52;;;19.30;99.90;;;;;;5077156;28;20178;-78
2022/09/14 12:46:19;;;;;;;2.55;0.60;;;19.30;99.90;;;;;;5056907;28;20117;-78
2022/09/14 12:48:45;;;;;;;2.70;0.50;;;19.10;99.90;;;;;;5076862;28;20144;-78
2022/09/14 12:51:27;;;;;;;3.60;0.50;;;19.10;99.90;;;;;;5072431;28;20778;-77
2022/09/14 12:54:08;;;;;;;3.50;0.60;;;19.30;99.90;;;;;;5073236;28;20082;-79
2022/09/14 12:56:39;;;;;;;4.88;0.60;;;19.20;99.90;;;;;;5074325;28;20043;-77
2022/09/14 12:59:25;;;;;;;1.95;0.60;;;19.30;99.90;;;;;;5059056;28;20052;-78
2022/09/14 13:01:55;;;;;;;2.92;0.50;;;19.10;99.90;;;;;;5075359;28;20041;-79
2022/09/14 13:04:27;;;;;;;3.10;0.70;;;19.10;99.90;;;;;;5076605;28;20040;-77
2022/09/14 13:06:55;;;;;;;1.90;0.50;;;19.10;99.90;;;;;;5072482;28;20472;-77
2022/09/14 13:09:27;;;;;;;3.63;0.40;;;19.20;99.90;;;;;;5058007;28;20179;-79
2022/09/14 13:11:57;;;;;;;3.60;0.60;;;19.10;99.90;;;;;;5073837;28;20041;-79